メインページ
METAR-TAF:

METAR-TAF

空港 :

Schenectady County Airport

スケネクタディ, ニューヨーク, アメリカ合衆国

緯度: 42-51N, 経度: 073-56W, 海抜: 115m

現時点の気象観測

当レポートは4時間2分前の01:56(UTC)に作成
北東の風 4kt
気温 8°C
湿度 87%
気圧 1014 hPa
視程: 16.1km
高度4400ftの千切れ雲あり
高度6500ftの千切れ雲あり
高度8000ftの曇り
小霧雨

METAR: KSCH 040156Z 04004KT 10SM -DZ BKN044 BKN065 OVC080 08/06 A2994 RMK LAST

時間: 01:58 (05:58 UTC)


TAF: 見つかりません

4,000以上の空港の気象観測と天気予報(METAR報とTAF報)

利用可能な観測所は地図上に黄色い丸と赤い丸で示す。

丸の上にカーソルを重ねると観測所名を参照できる。

次にクリックすると気象観測と天気予報を参照できる。

マップの切り替え:黒色「×」印の緑ボタンをクリックして拡大、「-」印の緑ボタンをクリックして縮小、緑色の三角印をクリックして隣りの地図に切り替え


METAR-TAF: